Time;durP1;ratioP1;P1;durP2;ratioP2;P2;SDS_P1;SDS_P2;PMS_P1;PMS_P2;Temp;Humidity;BMP_temperature;BMP_pressure;BME280_temperature;BME280_humidity;BME280_pressure;Samples;Min_cycle;Max_cycle;Signal;HPM_P1;HPM_P2
2022/07/18 00:00:22;;;;;;;20.10;18.75;;;12.10;99.90;;;;;;5006393;28;20451;-75
2022/07/18 00:02:49;;;;;;;20.30;19.00;;;12.10;99.90;;;;;;5037696;28;20029;-75
2022/07/18 00:05:16;;;;;;;20.35;19.00;;;12.10;99.90;;;;;;5027890;28;20033;-75
2022/07/18 00:07:43;;;;;;;19.55;18.35;;;12.10;99.90;;;;;;5037188;28;20051;-74
2022/07/18 00:10:09;;;;;;;19.90;18.58;;;12.00;99.90;;;;;;5047670;28;20048;-74
2022/07/18 00:12:36;;;;;;;20.52;19.15;;;11.90;99.90;;;;;;5022856;28;20048;-77
2022/07/18 00:15:05;;;;;;;20.23;18.92;;;11.90;99.90;;;;;;5022719;28;20071;-75
2022/07/18 00:17:32;;;;;;;19.83;18.63;;;11.90;99.90;;;;;;5034072;28;20412;-76
2022/07/18 00:19:58;;;;;;;19.35;18.17;;;11.90;99.90;;;;;;5062426;22;20194;-79
2022/07/18 00:22:25;;;;;;;20.30;19.00;;;11.80;99.90;;;;;;5024353;28;20107;-79
2022/07/18 00:24:52;;;;;;;20.30;19.00;;;11.80;99.90;;;;;;5042574;28;20044;-79
2022/07/18 00:27:19;;;;;;;19.80;18.60;;;11.70;99.90;;;;;;5024859;28;20457;-79
2022/07/18 00:29:45;;;;;;;20.02;18.83;;;11.80;99.90;;;;;;5025791;28;20049;-79
2022/07/18 00:32:12;;;;;;;20.63;19.10;;;11.70;99.90;;;;;;5039405;28;20094;-80
2022/07/18 00:34:39;;;;;;;20.30;18.77;;;11.70;99.90;;;;;;5022968;28;20041;-79
2022/07/18 00:37:06;;;;;;;20.55;19.00;;;11.70;99.90;;;;;;5042208;28;20048;-80
2022/07/18 00:39:34;;;;;;;19.80;18.55;;;11.60;99.90;;;;;;5038123;28;20091;-80
2022/07/18 00:42:01;;;;;;;19.83;18.63;;;11.60;99.90;;;;;;5044440;28;20040;-78
2022/07/18 00:44:29;;;;;;;19.92;18.63;;;11.60;99.90;;;;;;5037878;28;20098;-78
2022/07/18 00:46:59;;;;;;;19.40;18.30;;;11.60;99.90;;;;;;5048912;28;20045;-79
2022/07/18 00:49:27;;;;;;;20.50;19.02;;;11.60;99.90;;;;;;5035859;28;20068;-79
2022/07/18 00:51:54;;;;;;;20.02;18.63;;;11.70;99.90;;;;;;5034609;28;20059;-79
2022/07/18 00:54:21;;;;;;;18.67;17.50;;;11.50;99.90;;;;;;5021426;28;20048;-78
2022/07/18 00:56:50;;;;;;;18.92;17.85;;;11.50;99.90;;;;;;5047810;28;20041;-79
2022/07/18 00:59:17;;;;;;;18.65;17.45;;;11.60;99.90;;;;;;5013316;28;20572;-79
2022/07/18 01:01:47;;;;;;;18.60;17.50;;;11.40;99.90;;;;;;5056308;28;20071;-79
2022/07/18 01:04:18;;;;;;;18.70;17.48;;;11.50;99.90;;;;;;5025351;28;20088;-79
2022/07/18 01:06:46;;;;;;;18.50;17.48;;;11.50;99.90;;;;;;5020300;28;20114;-78
2022/07/18 01:09:14;;;;;;;19.50;18.27;;;11.50;99.90;;;;;;5025192;28;20103;-80
2022/07/18 01:11:43;;;;;;;19.65;18.25;;;11.50;99.90;;;;;;5047245;28;20140;-79
2022/07/18 01:14:10;;;;;;;19.90;18.23;;;11.50;99.90;;;;;;5031086;28;20427;-79
2022/07/18 01:16:37;;;;;;;18.75;17.73;;;11.50;99.90;;;;;;5017688;28;20219;-80
2022/07/18 01:19:04;;;;;;;19.33;17.88;;;11.50;99.90;;;;;;5024847;28;20502;-79
2022/07/18 01:21:31;;;;;;;17.90;16.80;;;11.50;99.90;;;;;;5037480;28;20140;-77
2022/07/18 01:23:58;;;;;;;19.65;18.20;;;11.40;99.90;;;;;;5017673;28;20075;-80
2022/07/18 01:26:25;;;;;;;18.63;17.08;;;11.40;99.90;;;;;;5056648;28;20387;-78
2022/07/18 01:28:52;;;;;;;18.20;17.10;;;11.30;99.90;;;;;;5022674;28;20052;-79
2022/07/18 01:31:19;;;;;;;18.85;17.55;;;11.20;99.90;;;;;;5028294;28;20393;-79
2022/07/18 01:33:47;;;;;;;19.02;17.60;;;11.20;99.90;;;;;;5040971;28;20135;-79
2022/07/18 01:36:13;;;;;;;17.95;16.95;;;11.20;99.90;;;;;;5055795;28;20044;-78
2022/07/18 01:38:40;;;;;;;17.58;16.27;;;11.30;99.90;;;;;;5036222;28;20040;-79
2022/07/18 01:41:07;;;;;;;18.02;16.77;;;11.10;99.90;;;;;;5028963;28;20096;-79
2022/07/18 01:43:34;;;;;;;17.77;16.63;;;11.00;99.90;;;;;;5034856;28;20255;-81
2022/07/18 01:46:02;;;;;;;17.83;16.70;;;11.10;99.90;;;;;;5044799;28;20095;-79
2022/07/18 01:48:29;;;;;;;18.15;16.65;;;11.20;99.90;;;;;;5036177;28;20036;-79
2022/07/18 01:50:56;;;;;;;19.20;17.20;;;11.20;99.90;;;;;;5041293;28;20132;-79
2022/07/18 01:53:24;;;;;;;18.20;17.00;;;11.10;99.90;;;;;;5037764;28;20710;-78
2022/07/18 01:55:51;;;;;;;19.02;17.75;;;11.00;99.90;;;;;;5028850;28;20072;-79
2022/07/18 01:58:18;;;;;;;18.70;17.60;;;11.00;99.90;;;;;;5038635;28;20074;-80
2022/07/18 02:00:45;;;;;;;18.38;17.25;;;11.00;99.90;;;;;;5036417;28;20107;-78
2022/07/18 02:03:11;;;;;;;18.75;17.65;;;10.90;99.90;;;;;;5034539;28;20053;-79
2022/07/18 02:05:38;;;;;;;19.15;17.65;;;10.80;99.90;;;;;;5040204;28;20048;-78
2022/07/18 02:08:05;;;;;;;19.33;18.23;;;10.80;99.90;;;;;;5038172;28;20056;-79
2022/07/18 02:10:32;;;;;;;19.65;18.45;;;10.70;99.90;;;;;;5045296;28;20048;-79
2022/07/18 02:12:59;;;;;;;19.60;18.40;;;10.80;99.90;;;;;;5036490;28;20444;-78
2022/07/18 02:15:26;;;;;;;19.50;18.20;;;10.80;99.90;;;;;;5025061;28;20086;-79
2022/07/18 02:17:53;;;;;;;19.15;17.95;;;10.70;99.90;;;;;;5042612;28;20075;-80
2022/07/18 02:20:19;;;;;;;18.55;17.45;;;10.70;99.90;;;;;;5036879;28;20041;-78
2022/07/18 02:22:46;;;;;;;18.88;17.55;;;10.60;99.90;;;;;;5040607;28;20041;-79
2022/07/18 02:25:13;;;;;;;18.65;17.33;;;10.70;99.90;;;;;;5029135;28;20045;-79
2022/07/18 02:27:41;;;;;;;17.98;16.88;;;10.80;99.90;;;;;;5038618;28;20044;-79
2022/07/18 02:30:09;;;;;;;18.63;17.42;;;10.80;99.90;;;;;;5040956;28;20493;-79
2022/07/18 02:32:37;;;;;;;18.77;17.58;;;10.90;99.90;;;;;;5041974;28;20155;-79
2022/07/18 02:35:08;;;;;;;18.20;16.95;;;11.00;99.90;;;;;;5036719;28;20076;-79
2022/07/18 02:37:37;;;;;;;18.27;17.00;;;10.90;99.90;;;;;;5023608;28;20048;-79
2022/07/18 02:40:07;;;;;;;17.92;16.63;;;10.90;99.90;;;;;;5037390;28;20540;-78
2022/07/18 02:42:34;;;;;;;18.13;17.05;;;10.70;99.90;;;;;;5048903;28;20536;-79
2022/07/18 02:45:02;;;;;;;17.52;16.50;;;10.70;99.90;;;;;;5027708;28;20043;-79
2022/07/18 02:47:28;;;;;;;18.17;16.98;;;10.60;99.90;;;;;;5055525;28;20248;-78
2022/07/18 02:49:55;;;;;;;18.70;17.27;;;10.60;99.90;;;;;;5054036;28;20087;-79
2022/07/18 02:52:22;;;;;;;18.35;17.27;;;10.60;99.90;;;;;;5039541;28;20057;-80
2022/07/18 02:54:49;;;;;;;18.63;17.55;;;10.50;99.90;;;;;;5037984;28;20041;-79
2022/07/18 02:57:16;;;;;;;19.05;17.77;;;10.50;99.90;;;;;;5039800;28;20044;-78
2022/07/18 02:59:43;;;;;;;18.73;17.52;;;10.50;99.90;;;;;;5038597;28;20107;-79
2022/07/18 03:02:10;;;;;;;18.70;17.60;;;10.50;99.90;;;;;;5034864;28;20052;-78
2022/07/18 03:04:36;;;;;;;19.08;17.63;;;10.40;99.90;;;;;;5034289;28;20491;-80
2022/07/18 03:07:03;;;;;;;18.40;17.15;;;10.40;99.90;;;;;;5045590;28;20536;-79
2022/07/18 03:09:30;;;;;;;17.98;16.50;;;10.40;99.90;;;;;;5040835;28;20041;-79
2022/07/18 03:11:59;;;;;;;17.13;16.23;;;10.50;99.90;;;;;;5033268;28;20037;-79
2022/07/18 03:14:26;;;;;;;17.10;15.82;;;10.50;99.90;;;;;;5041093;28;20144;-79
2022/07/18 03:16:53;;;;;;;16.23;15.10;;;10.50;99.90;;;;;;5043497;28;20057;-79
2022/07/18 03:19:20;;;;;;;17.23;15.98;;;10.60;99.90;;;;;;5042231;28;20136;-78
2022/07/18 03:21:47;;;;;;;16.45;15.35;;;10.50;99.90;;;;;;5032267;28;20099;-78
2022/07/18 03:24:14;;;;;;;16.10;15.07;;;10.50;99.90;;;;;;5033150;28;20094;-79
2022/07/18 03:26:41;;;;;;;16.55;15.27;;;10.60;99.90;;;;;;5028501;28;20506;-77
2022/07/18 03:29:09;;;;;;;17.27;16.00;;;10.60;99.90;;;;;;5048258;28;20048;-79
2022/07/18 03:31:36;;;;;;;17.17;15.93;;;10.60;99.90;;;;;;5047849;28;20638;-79
2022/07/18 03:34:03;;;;;;;16.77;15.82;;;10.40;99.90;;;;;;5031887;28;20055;-78
2022/07/18 03:36:30;;;;;;;17.15;16.25;;;10.60;99.90;;;;;;5036358;28;20329;-78
2022/07/18 03:38:57;;;;;;;17.42;16.35;;;10.40;99.90;;;;;;5012944;28;20095;-79
2022/07/18 03:41:24;;;;;;;18.63;17.55;;;10.50;99.90;;;;;;5040527;28;20086;-80
2022/07/18 03:43:51;;;;;;;19.05;17.88;;;10.40;99.90;;;;;;5039670;28;20048;-79
2022/07/18 03:46:18;;;;;;;19.60;18.40;;;10.50;99.90;;;;;;5032675;28;20053;-79
2022/07/18 03:48:44;;;;;;;20.48;18.80;;;10.50;99.90;;;;;;5038393;28;20160;-79
2022/07/18 03:51:13;;;;;;;19.20;18.00;;;10.60;99.90;;;;;;5024631;28;20049;-80
2022/07/18 03:53:40;;;;;;;18.52;17.42;;;10.50;99.90;;;;;;5043798;28;20049;-79
2022/07/18 03:56:07;;;;;;;19.20;17.88;;;10.50;99.90;;;;;;5042079;28;20042;-78
2022/07/18 03:58:34;;;;;;;19.05;17.85;;;10.40;99.90;;;;;;5034418;28;20044;-79
2022/07/18 04:01:01;;;;;;;18.65;17.52;;;10.40;99.90;;;;;;5043998;28;20052;-79
2022/07/18 04:03:28;;;;;;;18.48;17.48;;;10.50;99.90;;;;;;5039941;28;20048;-79
2022/07/18 04:05:55;;;;;;;19.58;18.33;;;10.50;99.90;;;;;;5044947;28;20041;-79
2022/07/18 04:08:22;;;;;;;19.58;18.38;;;10.50;99.90;;;;;;5041580;28;20094;-79
2022/07/18 04:10:49;;;;;;;20.08;18.55;;;10.50;99.90;;;;;;5040951;28;20119;-82
2022/07/18 04:13:16;;;;;;;19.42;18.15;;;10.50;99.90;;;;;;5026638;28;20067;-80
2022/07/18 04:15:43;;;;;;;19.55;18.35;;;10.60;99.90;;;;;;5034293;28;20045;-79
2022/07/18 04:18:10;;;;;;;19.67;18.35;;;10.50;99.90;;;;;;5034409;28;20037;-79
2022/07/18 04:20:38;;;;;;;19.38;18.08;;;10.50;99.90;;;;;;5057745;28;20793;-80
2022/07/18 04:23:07;;;;;;;18.80;17.60;;;10.70;99.90;;;;;;5032936;28;20056;-79
2022/07/18 04:25:41;;;;;;;19.15;17.73;;;10.80;99.90;;;;;;5039072;28;20083;-78
2022/07/18 04:28:10;;;;;;;19.25;17.85;;;11.00;99.90;;;;;;5020308;28;20131;-79
2022/07/18 04:30:38;;;;;;;18.63;17.40;;;11.10;99.90;;;;;;5050386;28;20044;-78
2022/07/18 04:33:07;;;;;;;17.85;16.73;;;11.10;99.90;;;;;;5022364;28;20044;-78
2022/07/18 04:35:38;;;;;;;18.33;16.98;;;11.10;99.90;;;;;;5033646;28;20036;-78
2022/07/18 04:38:07;;;;;;;18.35;17.15;;;11.00;99.90;;;;;;5057165;28;20098;-78
2022/07/18 04:40:34;;;;;;;18.38;17.08;;;11.10;99.90;;;;;;5043597;28;20037;-79
2022/07/18 04:43:02;;;;;;;18.48;17.25;;;11.20;99.90;;;;;;5018301;28;20055;-78
2022/07/18 04:45:29;;;;;;;17.67;16.70;;;11.30;99.90;;;;;;5053791;28;20106;-78
2022/07/18 04:47:56;;;;;;;18.15;17.05;;;11.50;99.90;;;;;;5027519;28;20079;-78
2022/07/18 04:50:24;;;;;;;18.30;17.20;;;11.70;99.90;;;;;;5034474;28;20155;-78
2022/07/18 04:52:51;;;;;;;19.48;18.05;;;11.70;99.90;;;;;;5027102;28;20373;-78
2022/07/18 04:55:24;;;;;;;19.73;18.30;;;11.90;99.90;;;;;;5039161;28;20124;-79
2022/07/18 04:57:51;;;;;;;20.60;19.00;;;12.10;99.90;;;;;;5033501;28;20044;-78
2022/07/18 05:00:21;;;;;;;20.98;19.27;;;12.40;99.90;;;;;;5025322;28;20041;-79
2022/07/18 05:02:51;;;;;;;22.08;20.58;;;12.70;99.90;;;;;;5032251;28;20049;-78
2022/07/18 05:05:19;;;;;;;22.73;20.50;;;13.10;99.90;;;;;;5040297;28;20091;-78
2022/07/18 05:07:48;;;;;;;22.45;21.05;;;13.50;99.90;;;;;;5049322;28;20139;-80
2022/07/18 05:10:17;;;;;;;22.00;20.70;;;13.90;99.90;;;;;;5068235;28;20064;-79
2022/07/18 05:12:48;;;;;;;22.13;20.77;;;14.40;99.90;;;;;;5046258;28;20101;-79
2022/07/18 05:15:17;;;;;;;22.38;20.83;;;15.00;99.90;;;;;;5026929;28;20036;-79
2022/07/18 05:17:44;;;;;;;22.00;20.67;;;15.20;99.90;;;;;;5042297;28;20439;-80
2022/07/18 05:20:14;;;;;;;22.65;21.27;;;15.30;99.90;;;;;;5033808;28;20095;-79
2022/07/18 05:22:41;;;;;;;22.80;21.35;;;15.60;99.90;;;;;;5031146;28;20238;-79
2022/07/18 05:25:09;;;;;;;22.67;21.25;;;15.70;99.90;;;;;;5021764;28;20045;-81
2022/07/18 05:27:36;;;;;;;21.77;20.38;;;15.70;99.90;;;;;;5040484;28;20044;-80
2022/07/18 05:30:04;;;;;;;21.85;20.42;;;15.60;99.90;;;;;;5039469;28;20372;-79
2022/07/18 05:32:31;;;;;;;21.80;20.13;;;15.40;99.90;;;;;;5020468;28;20052;-80
2022/07/18 05:34:58;;;;;;;22.23;20.80;;;15.40;99.90;;;;;;5044824;28;20044;-80
2022/07/18 05:37:25;;;;;;;21.73;20.42;;;15.40;99.90;;;;;;5047579;28;20075;-79
2022/07/18 05:39:52;;;;;;;21.40;20.08;;;15.60;99.90;;;;;;5056861;28;20049;-80
2022/07/18 05:42:19;;;;;;;22.23;20.63;;;16.00;99.90;;;;;;5036908;28;20564;-79
2022/07/18 05:45:07;;;;;;;22.38;20.67;;;16.20;99.90;;;;;;5034284;28;20071;-79
2022/07/18 05:47:34;;;;;;;21.90;20.60;;;16.60;99.90;;;;;;5061004;28;20032;-80
2022/07/18 05:50:01;;;;;;;21.58;20.17;;;16.80;99.90;;;;;;5037908;28;20041;-78
2022/07/18 05:52:28;;;;;;;21.85;20.40;;;17.20;99.90;;;;;;5045111;28;20076;-80
2022/07/18 05:54:55;;;;;;;21.58;20.27;;;17.70;99.90;;;;;;5051141;28;20064;-80
2022/07/18 05:57:22;;;;;;;22.35;21.02;;;18.00;99.90;;;;;;5045504;28;20552;-80
2022/07/18 05:59:49;;;;;;;21.95;20.67;;;18.20;99.90;;;;;;5038514;28;20090;-80
2022/07/18 06:02:16;;;;;;;21.98;20.60;;;18.30;99.90;;;;;;5038279;28;20524;-78
2022/07/18 06:04:43;;;;;;;22.58;20.98;;;18.70;99.90;;;;;;5032142;28;20041;-78
2022/07/18 06:07:30;;;;;;;21.75;20.33;;;19.00;99.90;;;;;;5027889;28;20073;-79
2022/07/18 06:09:56;;;;;;;23.52;21.75;;;19.20;99.90;;;;;;5034246;28;20500;-78
2022/07/18 06:12:27;;;;;;;22.67;21.13;;;19.50;99.90;;;;;;5053974;28;20102;-79
2022/07/18 06:14:54;;;;;;;22.40;20.70;;;19.80;99.90;;;;;;5039268;28;20063;-78
2022/07/18 06:17:20;;;;;;;22.50;20.95;;;20.30;99.90;;;;;;5035739;28;20433;-79
2022/07/18 06:19:47;;;;;;;23.58;21.88;;;20.80;99.90;;;;;;5050322;28;20044;-80
2022/07/18 06:22:14;;;;;;;23.10;21.60;;;21.00;99.90;;;;;;5041955;28;20447;-79
2022/07/18 06:24:41;;;;;;;23.23;21.48;;;21.20;99.90;;;;;;5022044;28;20503;-77
2022/07/18 06:27:08;;;;;;;22.95;21.33;;;21.80;99.90;;;;;;5036750;28;20061;-82
2022/07/18 06:29:35;;;;;;;23.33;21.55;;;22.00;99.90;;;;;;5049594;28;20033;-79
2022/07/18 06:32:02;;;;;;;23.13;21.55;;;22.10;99.90;;;;;;5033028;28;20285;-79
2022/07/18 06:34:28;;;;;;;23.48;22.08;;;22.30;99.90;;;;;;5055412;28;20513;-81
2022/07/18 06:36:55;;;;;;;23.17;21.73;;;22.30;99.90;;;;;;5038780;28;20257;-80
2022/07/18 06:39:22;;;;;;;23.75;22.25;;;22.40;99.90;;;;;;5027774;28;20092;-81
2022/07/18 06:41:49;;;;;;;23.60;22.13;;;22.50;99.90;;;;;;5029555;28;20049;-81
2022/07/18 06:44:17;;;;;;;25.05;23.25;;;22.40;99.90;;;;;;5028296;28;20109;-79
2022/07/18 06:46:43;;;;;;;24.48;22.58;;;22.30;99.90;;;;;;5010968;28;20455;-78
2022/07/18 06:49:10;;;;;;;24.67;23.08;;;22.40;99.90;;;;;;5037958;28;20059;-80
2022/07/18 06:51:37;;;;;;;25.67;23.40;;;22.50;99.90;;;;;;5033495;28;20080;-81
2022/07/18 06:54:04;;;;;;;24.48;22.98;;;22.60;99.90;;;;;;5030795;28;21056;-79
2022/07/18 06:56:31;;;;;;;25.90;24.13;;;22.60;99.90;;;;;;5031531;28;20044;-82
2022/07/18 06:58:57;;;;;;;26.25;24.55;;;22.60;99.90;;;;;;5022061;28;20056;-82
2022/07/18 07:01:24;;;;;;;25.27;23.63;;;22.90;99.90;;;;;;5048000;28;20045;-81
2022/07/18 07:03:51;;;;;;;25.75;24.15;;;23.00;99.90;;;;;;5021722;28;20045;-81
2022/07/18 07:06:18;;;;;;;25.48;23.65;;;23.20;99.90;;;;;;5030657;28;20390;-80
2022/07/18 07:08:45;;;;;;;24.63;23.13;;;23.40;99.90;;;;;;5021827;28;20408;-83
2022/07/18 07:11:13;;;;;;;24.40;22.80;;;23.90;99.90;;;;;;5016458;28;20056;-81
2022/07/18 07:13:39;;;;;;;24.95;23.45;;;24.10;99.90;;;;;;5031108;28;20490;-83
2022/07/18 07:16:06;;;;;;;25.65;24.08;;;24.00;99.90;;;;;;5031734;28;20056;-82
2022/07/18 07:18:33;;;;;;;26.17;24.40;;;24.10;99.90;;;;;;5030034;28;20044;-80
2022/07/18 07:21:00;;;;;;;24.88;23.27;;;24.30;99.90;;;;;;5030405;28;20403;-82
2022/07/18 07:23:27;;;;;;;24.75;23.00;;;24.40;99.90;;;;;;5037685;28;20583;-79
2022/07/18 07:25:54;;;;;;;24.50;22.95;;;24.20;99.90;;;;;;5030157;28;20526;-81
2022/07/18 07:28:21;;;;;;;26.27;24.50;;;24.40;99.90;;;;;;5029016;28;20049;-79
2022/07/18 07:30:48;;;;;;;26.95;24.92;;;24.50;99.90;;;;;;5035534;28;20044;-79
2022/07/18 07:33:16;;;;;;;26.65;24.92;;;24.70;99.90;;;;;;5034654;28;20174;-78
2022/07/18 07:35:43;;;;;;;26.90;24.98;;;25.00;99.90;;;;;;5023738;28;20095;-81
2022/07/18 07:38:17;;;;;;;25.80;24.10;;;25.20;99.90;;;;;;5026212;28;20040;-82
2022/07/18 07:40:44;;;;;;;25.60;24.00;;;25.00;99.90;;;;;;5035226;28;20638;-78
2022/07/18 07:43:13;;;;;;;26.40;24.58;;;25.20;99.90;;;;;;5046026;28;20049;-82
2022/07/18 07:45:40;;;;;;;25.77;23.67;;;25.40;99.90;;;;;;5032417;28;20041;-80
2022/07/18 07:48:08;;;;;;;25.55;23.85;;;25.40;99.90;;;;;;5033742;28;20558;-79
2022/07/18 07:50:35;;;;;;;25.63;23.90;;;24.80;99.90;;;;;;5032664;28;20502;-79
2022/07/18 07:53:02;;;;;;;25.05;23.55;;;25.00;99.90;;;;;;5033458;28;20536;-81
2022/07/18 07:55:29;;;;;;;24.65;23.15;;;25.20;99.80;;;;;;5009291;28;20044;-81
2022/07/18 07:57:56;;;;;;;25.00;23.50;;;25.60;99.60;;;;;;5010678;28;20072;-82
2022/07/18 08:00:23;;;;;;;26.52;24.65;;;25.70;99.40;;;;;;5025885;28;20045;-78
2022/07/18 08:02:55;;;;;;;26.55;24.80;;;25.90;99.70;;;;;;5026564;28;20382;-80
2022/07/18 08:05:27;;;;;;;25.80;24.08;;;25.80;99.70;;;;;;5020901;28;20045;-77
2022/07/18 08:07:54;;;;;;;27.48;25.58;;;26.10;99.40;;;;;;5016348;28;20264;-80
2022/07/18 08:10:21;;;;;;;27.30;25.65;;;26.50;98.90;;;;;;5032106;28;20048;-79
2022/07/18 08:12:48;;;;;;;26.63;25.02;;;26.70;99.10;;;;;;5029684;28;20040;-82
2022/07/18 08:15:15;;;;;;;26.98;25.27;;;27.10;98.50;;;;;;5009333;28;20095;-80
2022/07/18 08:17:44;;;;;;;27.08;25.38;;;27.50;97.70;;;;;;5024028;28;20146;-83
2022/07/18 08:20:14;;;;;;;27.48;25.67;;;27.50;97.10;;;;;;5023184;28;20033;-82
2022/07/18 08:23:10;;;;;;;27.58;25.58;;;27.30;97.40;;;;;;5007133;28;20048;-80
2022/07/18 08:25:39;;;;;;;28.30;26.42;;;27.20;95.90;;;;;;5030910;28;20326;-82
2022/07/18 08:28:11;;;;;;;27.63;25.63;;;27.40;95.60;;;;;;5030061;28;20070;-83
2022/07/18 08:30:38;;;;;;;29.55;27.63;;;27.30;96.40;;;;;;5027149;28;20136;-82
2022/07/18 08:33:06;;;;;;;28.83;26.90;;;27.40;94.30;;;;;;5029183;28;20045;-82
2022/07/18 08:35:34;;;;;;;28.17;26.27;;;27.80;94.20;;;;;;5033077;28;20065;-77
2022/07/18 08:38:05;;;;;;;28.38;26.58;;;28.20;95.10;;;;;;5027789;28;20072;-79
2022/07/18 08:40:32;;;;;;;27.92;26.23;;;28.40;92.50;;;;;;5022958;28;20110;-80
2022/07/18 08:42:59;;;;;;;28.52;26.63;;;28.50;93.00;;;;;;5032477;28;20056;-80
2022/07/18 08:45:46;;;;;;;29.52;27.73;;;28.60;92.10;;;;;;5036195;28;20364;-82
2022/07/18 08:48:23;;;;;;;29.65;27.65;;;28.40;92.10;;;;;;5026581;28;20055;-82
2022/07/18 08:50:50;;;;;;;30.75;28.90;;;28.70;91.10;;;;;;5031026;28;20048;-80
2022/07/18 08:53:20;;;;;;;29.33;27.50;;;28.80;90.80;;;;;;5032562;28;20447;-79
2022/07/18 08:55:47;;;;;;;27.77;26.05;;;28.70;90.60;;;;;;5037517;28;20087;-81
2022/07/18 08:58:17;;;;;;;28.48;26.73;;;28.60;90.90;;;;;;5048703;28;20041;-79
2022/07/18 09:01:04;;;;;;;30.67;28.67;;;28.00;91.10;;;;;;5026628;28;20634;-81
2022/07/18 09:03:31;;;;;;;30.45;28.50;;;27.50;91.60;;;;;;5020311;28;20331;-80
2022/07/18 09:06:13;;;;;;;30.10;28.20;;;27.70;91.20;;;;;;5028392;28;20069;-80
2022/07/18 09:08:57;;;;;;;29.55;27.65;;;28.10;91.60;;;;;;5028563;28;20052;-82
2022/07/18 09:11:25;;;;;;;30.02;28.30;;;28.40;90.40;;;;;;5031532;28;20044;-80
2022/07/18 09:14:40;;;;;;;30.63;28.45;;;28.30;90.80;;;;;;5029622;28;20318;-81
2022/07/18 09:17:11;;;;;;;30.27;28.17;;;28.70;91.40;;;;;;5023678;28;20396;-79
2022/07/18 09:19:56;;;;;;;28.45;26.65;;;29.20;90.00;;;;;;5043982;28;20464;-82
2022/07/18 09:22:25;;;;;;;30.27;28.20;;;29.60;90.60;;;;;;5049534;28;20232;-80
2022/07/18 09:25:05;;;;;;;29.92;27.83;;;29.60;88.60;;;;;;5032971;28;20399;-79
2022/07/18 09:27:38;;;;;;;30.65;28.75;;;29.80;89.80;;;;;;5028410;28;20538;-80
2022/07/18 09:30:17;;;;;;;28.17;26.23;;;29.90;88.20;;;;;;5030615;28;20045;-81
2022/07/18 09:33:06;;;;;;;30.55;28.50;;;30.10;86.10;;;;;;5028157;28;20052;-80
2022/07/18 09:35:52;;;;;;;30.23;28.08;;;30.40;87.60;;;;;;5026860;28;20043;-82
2022/07/18 09:38:28;;;;;;;29.75;27.95;;;30.40;85.40;;;;;;5033319;28;20048;-80
2022/07/18 09:40:57;;;;;;;29.58;27.70;;;30.40;84.00;;;;;;5026328;28;20052;-81
2022/07/18 09:43:27;;;;;;;29.85;28.13;;;30.40;84.00;;;;;;5036291;28;20040;-77
2022/07/18 09:45:55;;;;;;;30.90;28.83;;;30.60;84.70;;;;;;5013371;28;20094;-81
2022/07/18 09:48:27;;;;;;;30.75;28.58;;;30.70;83.30;;;;;;5030108;28;20134;-79
2022/07/18 09:50:58;;;;;;;31.58;29.75;;;30.40;80.90;;;;;;5033470;28;20051;-79
2022/07/18 09:53:40;;;;;;;31.83;30.00;;;29.70;82.80;;;;;;5031622;28;20072;-80
2022/07/18 09:56:24;;;;;;;32.30;30.40;;;29.50;82.00;;;;;;5038409;28;20580;-80
2022/07/18 09:58:53;;;;;;;29.85;27.95;;;29.30;84.00;;;;;;5030441;28;20048;-83
2022/07/18 10:01:21;;;;;;;31.83;29.92;;;29.80;82.70;;;;;;5031470;28;20114;-80
2022/07/18 10:03:49;;;;;;;30.55;28.85;;;30.20;82.40;;;;;;5034388;28;20318;-80
2022/07/18 10:06:18;;;;;;;30.20;28.42;;;30.40;85.90;;;;;;5054110;28;20075;-81
2022/07/18 10:08:45;;;;;;;30.20;28.30;;;30.50;80.80;;;;;;5036722;28;20044;-79
2022/07/18 10:11:12;;;;;;;31.17;29.17;;;30.80;80.70;;;;;;5044874;28;20358;-82
2022/07/18 10:13:42;;;;;;;30.80;29.00;;;31.10;83.00;;;;;;5031402;28;20049;-80
2022/07/18 10:16:09;;;;;;;32.13;30.20;;;30.70;79.00;;;;;;5024201;28;20103;-84
2022/07/18 10:18:36;;;;;;;31.08;29.20;;;30.50;79.10;;;;;;5048008;28;20099;-81
2022/07/18 10:21:15;;;;;;;29.45;27.75;;;30.60;79.10;;;;;;5026295;28;20040;-79
2022/07/18 10:23:47;;;;;;;30.92;29.02;;;30.90;80.20;;;;;;5049030;28;20396;-81
2022/07/18 10:26:26;;;;;;;31.38;29.48;;;30.80;78.90;;;;;;5047994;28;20048;-82
2022/07/18 10:28:55;;;;;;;31.20;29.30;;;30.80;77.80;;;;;;5030071;28;20052;-80
2022/07/18 10:31:31;;;;;;;31.85;29.80;;;30.90;79.50;;;;;;5028950;28;20041;-80
2022/07/18 10:34:07;;;;;;;32.40;30.10;;;30.90;77.70;;;;;;5009537;28;20256;-81
2022/07/18 10:36:42;;;;;;;32.88;30.42;;;30.80;78.10;;;;;;5050568;28;20424;-80
2022/07/18 10:39:25;;;;;;;29.38;27.67;;;30.40;78.20;;;;;;5045419;28;20044;-82
2022/07/18 10:41:54;;;;;;;31.42;29.52;;;30.30;79.10;;;;;;5027068;28;20048;-79
2022/07/18 10:44:30;;;;;;;33.08;30.95;;;30.40;80.80;;;;;;5013525;28;20132;-80
2022/07/18 10:47:02;;;;;;;33.60;31.48;;;30.50;78.80;;;;;;5031262;28;20326;-80
2022/07/18 10:49:47;;;;;;;33.15;31.10;;;30.60;77.60;;;;;;5030198;28;20451;-79
2022/07/18 10:52:26;;;;;;;31.73;29.60;;;30.90;78.00;;;;;;5026573;28;20151;-78
2022/07/18 10:55:18;;;;;;;31.35;29.20;;;30.60;77.90;;;;;;5027019;28;20049;-80
2022/07/18 10:57:48;;;;;;;32.70;30.40;;;30.30;79.20;;;;;;5047438;28;20095;-80
2022/07/18 11:00:23;;;;;;;31.45;29.52;;;30.90;78.80;;;;;;5022423;28;20080;-79
2022/07/18 11:03:10;;;;;;;31.85;29.70;;;31.50;79.80;;;;;;5026516;28;20419;-82
2022/07/18 11:05:44;;;;;;;33.25;31.15;;;31.90;76.90;;;;;;5024651;28;20787;-79
2022/07/18 11:08:12;;;;;;;32.63;30.63;;;31.90;74.30;;;;;;5029506;28;20115;-80
2022/07/18 11:10:46;;;;;;;32.70;30.50;;;32.10;76.60;;;;;;5019981;28;20630;-78
2022/07/18 11:13:27;;;;;;;32.50;30.35;;;31.60;75.50;;;;;;5031477;28;20464;-80
2022/07/18 11:16:12;;;;;;;31.73;29.55;;;31.20;76.20;;;;;;5019862;28;20465;-80
2022/07/18 11:18:42;;;;;;;32.33;30.25;;;31.50;75.50;;;;;;5033283;28;20048;-81
2022/07/18 11:21:19;;;;;;;32.63;30.42;;;31.70;75.40;;;;;;5022747;28;20044;-80
2022/07/18 11:24:08;;;;;;;31.98;29.92;;;32.00;75.80;;;;;;5033569;28;20045;-84
2022/07/18 11:26:37;;;;;;;32.58;30.38;;;32.40;75.70;;;;;;5026899;28;20040;-81
2022/07/18 11:29:10;;;;;;;33.83;31.52;;;32.40;74.20;;;;;;5029493;28;20311;-80
2022/07/18 11:32:03;;;;;;;33.75;31.58;;;32.40;75.40;;;;;;5030876;28;20060;-80
2022/07/18 11:34:29;;;;;;;31.45;29.35;;;32.30;73.90;;;;;;5030741;28;20427;-80
2022/07/18 11:37:13;;;;;;;33.45;30.90;;;32.00;73.10;;;;;;5030550;28;20051;-79
2022/07/18 11:39:40;;;;;;;33.63;31.40;;;31.60;73.40;;;;;;5050980;28;20057;-81
2022/07/18 11:42:09;;;;;;;33.85;31.52;;;31.10;75.60;;;;;;5031883;28;20576;-78
2022/07/18 11:44:36;;;;;;;33.30;31.10;;;31.60;75.80;;;;;;5029269;28;20249;-79
2022/07/18 11:47:11;;;;;;;34.03;31.73;;;31.90;72.50;;;;;;5012410;28;20044;-81
2022/07/18 11:49:38;;;;;;;32.72;30.58;;;31.90;72.30;;;;;;5028945;28;20056;-78
2022/07/18 11:52:06;;;;;;;33.70;31.10;;;31.80;72.80;;;;;;5029893;28;20045;-81
2022/07/18 11:54:34;;;;;;;33.78;31.67;;;31.70;74.40;;;;;;5037479;28;20098;-81
2022/07/18 11:57:01;;;;;;;32.78;30.67;;;31.80;73.70;;;;;;5034960;28;20045;-80
2022/07/18 11:59:44;;;;;;;34.92;32.72;;;32.00;73.40;;;;;;5032580;28;20072;-79
2022/07/18 12:02:11;;;;;;;35.03;32.92;;;32.00;71.60;;;;;;5016380;28;20039;-81
2022/07/18 12:04:41;;;;;;;33.58;31.38;;;32.00;71.80;;;;;;5025112;28;20084;-79
2022/07/18 12:07:24;;;;;;;34.33;31.95;;;32.10;71.20;;;;;;5031449;28;20441;-80
2022/07/18 12:09:52;;;;;;;33.50;31.35;;;31.00;73.00;;;;;;5014122;28;20052;-80
2022/07/18 12:12:21;;;;;;;34.08;31.98;;;31.50;71.90;;;;;;5020431;28;20059;-81
2022/07/18 12:14:58;;;;;;;32.67;30.50;;;31.90;70.90;;;;;;5029231;28;20496;-79
2022/07/18 12:17:25;;;;;;;33.40;30.92;;;32.20;69.70;;;;;;5026523;28;20402;-80
2022/07/18 12:19:52;;;;;;;34.38;32.08;;;32.60;71.10;;;;;;5019087;28;20464;-79
2022/07/18 12:22:19;;;;;;;34.28;32.05;;;32.90;71.50;;;;;;5028674;28;20041;-79
2022/07/18 12:24:56;;;;;;;33.28;31.08;;;33.40;71.20;;;;;;5021626;28;20052;-82
2022/07/18 12:27:29;;;;;;;33.67;31.50;;;33.30;68.60;;;;;;5015068;28;20040;-79
2022/07/18 12:30:18;;;;;;;33.77;31.50;;;33.20;67.80;;;;;;5045192;28;20040;-80
2022/07/18 12:32:46;;;;;;;33.72;31.35;;;33.20;70.80;;;;;;5028427;28;20068;-81
2022/07/18 12:35:20;;;;;;;32.45;30.17;;;33.20;71.40;;;;;;5048443;28;20052;-80
2022/07/18 12:37:57;;;;;;;33.55;31.45;;;33.20;72.40;;;;;;5029274;28;20049;-80
2022/07/18 12:40:27;;;;;;;32.72;30.83;;;33.20;70.60;;;;;;5016779;28;20111;-80